sensor_id;sensor_type;location;lat;lon;timestamp;P1;durP1;ratioP1;P2;durP2;ratioP2
2840;SDS011;53423;49.224;12.074;2022-07-23T00:00:35;15.52;;;10.63;;
2840;SDS011;53423;49.224;12.074;2022-07-23T00:03:05;15.95;;;10.88;;
2840;SDS011;53423;49.224;12.074;2022-07-23T00:05:33;14.43;;;10.27;;
2840;SDS011;53423;49.224;12.074;2022-07-23T00:08:03;16.80;;;11.17;;
2840;SDS011;53423;49.224;12.074;2022-07-23T00:10:39;18.27;;;11.75;;
2840;SDS011;53423;49.224;12.074;2022-07-23T00:13:08;15.68;;;10.65;;
2840;SDS011;53423;49.224;12.074;2022-07-23T00:15:37;14.82;;;10.63;;
2840;SDS011;53423;49.224;12.074;2022-07-23T00:18:06;14.93;;;10.20;;
2840;SDS011;53423;49.224;12.074;2022-07-23T00:20:34;14.03;;;9.97;;
2840;SDS011;53423;49.224;12.074;2022-07-23T00:23:02;14.75;;;10.20;;
2840;SDS011;53423;49.224;12.074;2022-07-23T00:25:30;15.30;;;11.10;;
2840;SDS011;53423;49.224;12.074;2022-07-23T00:27:59;15.27;;;11.30;;
2840;SDS011;53423;49.224;12.074;2022-07-23T00:30:30;16.65;;;12.45;;
2840;SDS011;53423;49.224;12.074;2022-07-23T00:33:01;15.30;;;11.03;;
2840;SDS011;53423;49.224;12.074;2022-07-23T00:35:31;14.68;;;10.85;;
2840;SDS011;53423;49.224;12.074;2022-07-23T00:38:01;15.30;;;11.13;;
2840;SDS011;53423;49.224;12.074;2022-07-23T00:40:31;15.98;;;11.50;;
2840;SDS011;53423;49.224;12.074;2022-07-23T00:42:59;15.60;;;11.65;;
2840;SDS011;53423;49.224;12.074;2022-07-23T00:45:28;18.10;;;12.00;;
2840;SDS011;53423;49.224;12.074;2022-07-23T00:47:56;17.92;;;10.77;;
2840;SDS011;53423;49.224;12.074;2022-07-23T00:50:26;14.80;;;10.82;;
2840;SDS011;53423;49.224;12.074;2022-07-23T00:52:55;14.77;;;10.77;;
2840;SDS011;53423;49.224;12.074;2022-07-23T00:55:23;19.77;;;12.13;;
2840;SDS011;53423;49.224;12.074;2022-07-23T00:57:51;16.90;;;12.07;;
2840;SDS011;53423;49.224;12.074;2022-07-23T01:00:22;19.33;;;11.38;;
2840;SDS011;53423;49.224;12.074;2022-07-23T01:02:50;17.33;;;10.70;;
2840;SDS011;53423;49.224;12.074;2022-07-23T01:05:19;16.67;;;11.02;;
2840;SDS011;53423;49.224;12.074;2022-07-23T01:07:50;13.48;;;9.63;;
2840;SDS011;53423;49.224;12.074;2022-07-23T01:10:21;13.47;;;8.67;;
2840;SDS011;53423;49.224;12.074;2022-07-23T01:13:00;12.40;;;9.13;;
2840;SDS011;53423;49.224;12.074;2022-07-23T01:15:31;12.55;;;8.65;;
2840;SDS011;53423;49.224;12.074;2022-07-23T01:18:00;12.38;;;8.57;;
2840;SDS011;53423;49.224;12.074;2022-07-23T01:20:29;14.93;;;8.75;;
2840;SDS011;53423;49.224;12.074;2022-07-23T01:22:59;16.43;;;9.37;;
2840;SDS011;53423;49.224;12.074;2022-07-23T01:25:27;15.63;;;8.73;;
2840;SDS011;53423;49.224;12.074;2022-07-23T01:27:55;14.35;;;9.15;;
2840;SDS011;53423;49.224;12.074;2022-07-23T01:30:24;12.32;;;8.70;;
2840;SDS011;53423;49.224;12.074;2022-07-23T01:32:52;12.88;;;9.05;;
2840;SDS011;53423;49.224;12.074;2022-07-23T01:35:20;12.10;;;8.10;;
2840;SDS011;53423;49.224;12.074;2022-07-23T01:37:49;12.18;;;8.43;;
2840;SDS011;53423;49.224;12.074;2022-07-23T01:40:18;13.27;;;9.32;;
2840;SDS011;53423;49.224;12.074;2022-07-23T01:42:48;13.55;;;8.73;;
2840;SDS011;53423;49.224;12.074;2022-07-23T01:45:16;13.35;;;8.60;;
2840;SDS011;53423;49.224;12.074;2022-07-23T01:47:44;14.67;;;9.30;;
2840;SDS011;53423;49.224;12.074;2022-07-23T01:50:13;11.77;;;8.00;;
2840;SDS011;53423;49.224;12.074;2022-07-23T01:52:42;12.68;;;8.40;;
2840;SDS011;53423;49.224;12.074;2022-07-23T01:55:10;12.00;;;8.48;;
2840;SDS011;53423;49.224;12.074;2022-07-23T01:57:45;11.93;;;8.40;;
2840;SDS011;53423;49.224;12.074;2022-07-23T02:00:14;10.93;;;7.40;;
2840;SDS011;53423;49.224;12.074;2022-07-23T02:02:42;11.23;;;8.43;;
2840;SDS011;53423;49.224;12.074;2022-07-23T02:05:11;11.23;;;8.32;;
2840;SDS011;53423;49.224;12.074;2022-07-23T02:07:39;13.30;;;8.10;;
2840;SDS011;53423;49.224;12.074;2022-07-23T02:10:08;11.48;;;8.65;;
2840;SDS011;53423;49.224;12.074;2022-07-23T02:12:37;13.13;;;8.23;;
2840;SDS011;53423;49.224;12.074;2022-07-23T02:15:07;11.35;;;8.00;;
2840;SDS011;53423;49.224;12.074;2022-07-23T02:17:35;13.77;;;8.98;;
2840;SDS011;53423;49.224;12.074;2022-07-23T02:20:05;12.80;;;8.55;;
2840;SDS011;53423;49.224;12.074;2022-07-23T02:22:34;11.57;;;8.77;;
2840;SDS011;53423;49.224;12.074;2022-07-23T02:25:02;12.07;;;9.23;;
2840;SDS011;53423;49.224;12.074;2022-07-23T02:27:31;13.35;;;8.40;;
2840;SDS011;53423;49.224;12.074;2022-07-23T02:29:59;13.30;;;8.95;;
2840;SDS011;53423;49.224;12.074;2022-07-23T02:32:29;10.43;;;8.35;;
2840;SDS011;53423;49.224;12.074;2022-07-23T02:34:57;11.90;;;8.63;;
2840;SDS011;53423;49.224;12.074;2022-07-23T02:37:25;14.13;;;9.30;;
2840;SDS011;53423;49.224;12.074;2022-07-23T02:39:54;12.65;;;8.57;;
2840;SDS011;53423;49.224;12.074;2022-07-23T02:42:22;12.45;;;8.00;;
2840;SDS011;53423;49.224;12.074;2022-07-23T02:44:50;13.10;;;8.70;;
2840;SDS011;53423;49.224;12.074;2022-07-23T02:47:19;13.75;;;9.43;;
2840;SDS011;53423;49.224;12.074;2022-07-23T02:49:48;15.63;;;9.17;;
2840;SDS011;53423;49.224;12.074;2022-07-23T02:52:17;13.25;;;9.73;;
2840;SDS011;53423;49.224;12.074;2022-07-23T02:54:45;13.52;;;9.48;;
2840;SDS011;53423;49.224;12.074;2022-07-23T02:57:14;16.10;;;10.85;;
2840;SDS011;53423;49.224;12.074;2022-07-23T02:59:42;15.75;;;11.43;;
2840;SDS011;53423;49.224;12.074;2022-07-23T03:02:10;17.50;;;11.50;;
2840;SDS011;53423;49.224;12.074;2022-07-23T03:04:38;14.40;;;9.80;;
2840;SDS011;53423;49.224;12.074;2022-07-23T03:07:10;20.40;;;11.07;;
2840;SDS011;53423;49.224;12.074;2022-07-23T03:09:38;17.05;;;11.20;;
2840;SDS011;53423;49.224;12.074;2022-07-23T03:12:07;18.27;;;11.60;;
2840;SDS011;53423;49.224;12.074;2022-07-23T03:14:39;16.53;;;12.00;;
2840;SDS011;53423;49.224;12.074;2022-07-23T03:17:08;16.27;;;10.98;;
2840;SDS011;53423;49.224;12.074;2022-07-23T03:19:37;14.85;;;11.65;;
2840;SDS011;53423;49.224;12.074;2022-07-23T03:22:05;16.00;;;11.02;;
2840;SDS011;53423;49.224;12.074;2022-07-23T03:24:35;14.05;;;10.43;;
2840;SDS011;53423;49.224;12.074;2022-07-23T03:27:22;15.57;;;11.27;;
2840;SDS011;53423;49.224;12.074;2022-07-23T03:29:51;14.85;;;11.25;;
2840;SDS011;53423;49.224;12.074;2022-07-23T03:32:20;14.73;;;10.38;;
2840;SDS011;53423;49.224;12.074;2022-07-23T03:34:48;15.98;;;11.43;;
2840;SDS011;53423;49.224;12.074;2022-07-23T03:37:18;15.18;;;11.13;;
2840;SDS011;53423;49.224;12.074;2022-07-23T03:39:48;13.37;;;9.33;;
2840;SDS011;53423;49.224;12.074;2022-07-23T03:42:16;14.77;;;9.55;;
2840;SDS011;53423;49.224;12.074;2022-07-23T03:44:45;14.00;;;9.48;;
2840;SDS011;53423;49.224;12.074;2022-07-23T03:47:13;13.82;;;9.00;;
2840;SDS011;53423;49.224;12.074;2022-07-23T03:49:43;13.35;;;8.90;;
2840;SDS011;53423;49.224;12.074;2022-07-23T03:52:11;11.37;;;8.10;;
2840;SDS011;53423;49.224;12.074;2022-07-23T03:54:39;11.80;;;7.95;;
2840;SDS011;53423;49.224;12.074;2022-07-23T03:57:09;13.45;;;8.10;;
2840;SDS011;53423;49.224;12.074;2022-07-23T03:59:37;11.30;;;7.90;;
2840;SDS011;53423;49.224;12.074;2022-07-23T04:02:05;11.45;;;8.20;;
2840;SDS011;53423;49.224;12.074;2022-07-23T04:04:34;11.63;;;7.40;;
2840;SDS011;53423;49.224;12.074;2022-07-23T04:07:02;13.15;;;7.78;;
2840;SDS011;53423;49.224;12.074;2022-07-23T04:09:31;11.10;;;7.60;;
2840;SDS011;53423;49.224;12.074;2022-07-23T04:11:59;10.85;;;7.70;;
2840;SDS011;53423;49.224;12.074;2022-07-23T04:14:28;11.20;;;7.80;;
2840;SDS011;53423;49.224;12.074;2022-07-23T04:16:57;11.30;;;7.43;;
2840;SDS011;53423;49.224;12.074;2022-07-23T04:19:25;12.13;;;7.75;;
2840;SDS011;53423;49.224;12.074;2022-07-23T04:21:53;11.23;;;7.43;;
2840;SDS011;53423;49.224;12.074;2022-07-23T04:24:22;12.02;;;7.40;;
2840;SDS011;53423;49.224;12.074;2022-07-23T04:26:50;10.98;;;7.22;;
2840;SDS011;53423;49.224;12.074;2022-07-23T04:29:19;10.87;;;8.10;;
2840;SDS011;53423;49.224;12.074;2022-07-23T04:31:48;11.57;;;7.60;;
2840;SDS011;53423;49.224;12.074;2022-07-23T04:34:17;10.48;;;7.38;;
2840;SDS011;53423;49.224;12.074;2022-07-23T04:36:45;10.32;;;6.97;;
2840;SDS011;53423;49.224;12.074;2022-07-23T04:39:13;10.52;;;6.60;;
2840;SDS011;53423;49.224;12.074;2022-07-23T04:41:42;9.50;;;6.77;;
2840;SDS011;53423;49.224;12.074;2022-07-23T04:44:10;10.32;;;6.78;;
2840;SDS011;53423;49.224;12.074;2022-07-23T04:46:38;10.45;;;6.28;;
2840;SDS011;53423;49.224;12.074;2022-07-23T04:49:08;9.13;;;5.95;;
2840;SDS011;53423;49.224;12.074;2022-07-23T04:51:36;9.57;;;6.10;;
2840;SDS011;53423;49.224;12.074;2022-07-23T04:54:05;10.70;;;6.70;;
2840;SDS011;53423;49.224;12.074;2022-07-23T04:56:33;10.00;;;6.65;;
2840;SDS011;53423;49.224;12.074;2022-07-23T04:59:01;10.15;;;6.03;;
2840;SDS011;53423;49.224;12.074;2022-07-23T05:01:30;9.88;;;5.90;;
2840;SDS011;53423;49.224;12.074;2022-07-23T05:03:59;10.02;;;5.90;;
2840;SDS011;53423;49.224;12.074;2022-07-23T05:06:28;10.37;;;6.60;;
2840;SDS011;53423;49.224;12.074;2022-07-23T05:08:56;8.98;;;5.93;;
2840;SDS011;53423;49.224;12.074;2022-07-23T05:11:25;8.60;;;5.40;;
2840;SDS011;53423;49.224;12.074;2022-07-23T05:13:54;10.65;;;6.28;;
2840;SDS011;53423;49.224;12.074;2022-07-23T05:16:22;11.63;;;6.15;;
2840;SDS011;53423;49.224;12.074;2022-07-23T05:18:50;8.53;;;5.80;;
2840;SDS011;53423;49.224;12.074;2022-07-23T05:21:19;9.30;;;5.55;;
2840;SDS011;53423;49.224;12.074;2022-07-23T05:23:48;9.57;;;6.22;;
2840;SDS011;53423;49.224;12.074;2022-07-23T05:26:17;10.10;;;5.80;;
2840;SDS011;53423;49.224;12.074;2022-07-23T05:28:47;9.20;;;6.10;;
2840;SDS011;53423;49.224;12.074;2022-07-23T05:31:15;9.63;;;5.40;;
2840;SDS011;53423;49.224;12.074;2022-07-23T05:33:44;7.93;;;5.57;;
2840;SDS011;53423;49.224;12.074;2022-07-23T05:36:12;9.93;;;5.93;;
2840;SDS011;53423;49.224;12.074;2022-07-23T05:38:41;9.05;;;5.82;;
2840;SDS011;53423;49.224;12.074;2022-07-23T05:41:10;11.05;;;5.97;;
2840;SDS011;53423;49.224;12.074;2022-07-23T05:43:39;9.70;;;5.67;;
2840;SDS011;53423;49.224;12.074;2022-07-23T05:46:07;8.90;;;5.55;;
2840;SDS011;53423;49.224;12.074;2022-07-23T05:48:36;9.23;;;5.35;;
2840;SDS011;53423;49.224;12.074;2022-07-23T05:51:04;8.43;;;5.57;;
2840;SDS011;53423;49.224;12.074;2022-07-23T05:53:33;7.85;;;4.85;;
2840;SDS011;53423;49.224;12.074;2022-07-23T05:56:02;10.17;;;5.60;;
2840;SDS011;53423;49.224;12.074;2022-07-23T05:58:32;9.85;;;5.88;;
2840;SDS011;53423;49.224;12.074;2022-07-23T06:01:00;8.68;;;5.57;;
2840;SDS011;53423;49.224;12.074;2022-07-23T06:03:28;9.23;;;5.47;;
2840;SDS011;53423;49.224;12.074;2022-07-23T06:05:56;8.52;;;5.50;;
2840;SDS011;53423;49.224;12.074;2022-07-23T06:08:25;9.47;;;5.33;;
2840;SDS011;53423;49.224;12.074;2022-07-23T06:10:53;9.82;;;5.07;;
2840;SDS011;53423;49.224;12.074;2022-07-23T06:13:21;8.95;;;5.40;;
2840;SDS011;53423;49.224;12.074;2022-07-23T06:15:51;9.52;;;4.80;;
2840;SDS011;53423;49.224;12.074;2022-07-23T06:18:20;11.05;;;4.78;;
2840;SDS011;53423;49.224;12.074;2022-07-23T06:20:48;8.87;;;4.77;;
2840;SDS011;53423;49.224;12.074;2022-07-23T06:23:22;9.32;;;4.60;;
2840;SDS011;53423;49.224;12.074;2022-07-23T06:25:50;6.60;;;3.72;;
2840;SDS011;53423;49.224;12.074;2022-07-23T06:28:18;8.13;;;4.10;;
2840;SDS011;53423;49.224;12.074;2022-07-23T06:30:46;7.43;;;3.67;;
2840;SDS011;53423;49.224;12.074;2022-07-23T06:33:16;8.87;;;3.80;;
2840;SDS011;53423;49.224;12.074;2022-07-23T06:35:45;6.80;;;3.50;;
2840;SDS011;53423;49.224;12.074;2022-07-23T06:38:13;7.40;;;3.80;;
2840;SDS011;53423;49.224;12.074;2022-07-23T06:40:42;8.25;;;3.75;;
2840;SDS011;53423;49.224;12.074;2022-07-23T06:43:11;7.32;;;3.42;;
2840;SDS011;53423;49.224;12.074;2022-07-23T06:45:39;7.70;;;4.00;;
2840;SDS011;53423;49.224;12.074;2022-07-23T06:48:07;5.95;;;3.20;;
2840;SDS011;53423;49.224;12.074;2022-07-23T06:50:37;6.35;;;3.60;;
2840;SDS011;53423;49.224;12.074;2022-07-23T06:53:05;7.38;;;3.63;;
2840;SDS011;53423;49.224;12.074;2022-07-23T06:55:34;7.32;;;3.75;;
2840;SDS011;53423;49.224;12.074;2022-07-23T06:58:05;6.83;;;3.80;;
2840;SDS011;53423;49.224;12.074;2022-07-23T07:00:33;9.57;;;3.50;;
2840;SDS011;53423;49.224;12.074;2022-07-23T07:03:01;6.47;;;3.30;;
2840;SDS011;53423;49.224;12.074;2022-07-23T07:05:30;8.20;;;3.58;;
2840;SDS011;53423;49.224;12.074;2022-07-23T07:08:00;7.57;;;3.42;;
2840;SDS011;53423;49.224;12.074;2022-07-23T07:10:28;7.63;;;3.30;;
2840;SDS011;53423;49.224;12.074;2022-07-23T07:12:56;6.22;;;3.50;;
2840;SDS011;53423;49.224;12.074;2022-07-23T07:15:24;7.53;;;3.60;;
2840;SDS011;53423;49.224;12.074;2022-07-23T07:17:53;8.25;;;4.05;;
2840;SDS011;53423;49.224;12.074;2022-07-23T07:20:21;7.78;;;3.75;;
2840;SDS011;53423;49.224;12.074;2022-07-23T07:22:49;6.97;;;3.97;;
2840;SDS011;53423;49.224;12.074;2022-07-23T07:25:19;6.97;;;4.25;;
2840;SDS011;53423;49.224;12.074;2022-07-23T07:27:47;8.15;;;4.25;;
2840;SDS011;53423;49.224;12.074;2022-07-23T07:30:16;9.10;;;4.05;;
2840;SDS011;53423;49.224;12.074;2022-07-23T07:32:44;7.20;;;4.25;;
2840;SDS011;53423;49.224;12.074;2022-07-23T07:35:22;7.47;;;4.03;;
2840;SDS011;53423;49.224;12.074;2022-07-23T07:37:50;7.57;;;3.60;;
2840;SDS011;53423;49.224;12.074;2022-07-23T07:40:20;6.40;;;3.63;;
2840;SDS011;53423;49.224;12.074;2022-07-23T07:42:50;7.53;;;3.75;;
2840;SDS011;53423;49.224;12.074;2022-07-23T07:45:21;7.80;;;3.67;;
2840;SDS011;53423;49.224;12.074;2022-07-23T07:47:51;7.17;;;3.30;;
2840;SDS011;53423;49.224;12.074;2022-07-23T07:50:21;6.53;;;3.35;;
2840;SDS011;53423;49.224;12.074;2022-07-23T07:52:49;6.30;;;3.22;;
2840;SDS011;53423;49.224;12.074;2022-07-23T07:55:17;6.13;;;3.20;;
2840;SDS011;53423;49.224;12.074;2022-07-23T07:57:47;6.45;;;3.70;;
2840;SDS011;53423;49.224;12.074;2022-07-23T08:00:16;6.97;;;3.60;;
2840;SDS011;53423;49.224;12.074;2022-07-23T08:02:46;6.22;;;3.33;;
2840;SDS011;53423;49.224;12.074;2022-07-23T08:05:19;7.32;;;3.85;;
2840;SDS011;53423;49.224;12.074;2022-07-23T08:07:53;6.63;;;3.30;;
2840;SDS011;53423;49.224;12.074;2022-07-23T08:10:22;10.30;;;4.00;;
2840;SDS011;53423;49.224;12.074;2022-07-23T08:12:53;7.00;;;3.60;;
2840;SDS011;53423;49.224;12.074;2022-07-23T08:15:23;6.97;;;3.53;;
2840;SDS011;53423;49.224;12.074;2022-07-23T08:17:52;7.63;;;3.80;;
2840;SDS011;53423;49.224;12.074;2022-07-23T08:20:22;6.18;;;3.30;;
2840;SDS011;53423;49.224;12.074;2022-07-23T08:22:51;6.97;;;3.65;;
2840;SDS011;53423;49.224;12.074;2022-07-23T08:25:23;6.07;;;3.97;;
2840;SDS011;53423;49.224;12.074;2022-07-23T08:27:55;6.85;;;3.60;;
2840;SDS011;53423;49.224;12.074;2022-07-23T08:30:23;6.13;;;3.47;;
2840;SDS011;53423;49.224;12.074;2022-07-23T08:32:53;6.38;;;3.88;;
2840;SDS011;53423;49.224;12.074;2022-07-23T08:35:24;7.18;;;3.72;;
2840;SDS011;53423;49.224;12.074;2022-07-23T08:37:55;6.20;;;3.60;;
2840;SDS011;53423;49.224;12.074;2022-07-23T08:40:26;5.57;;;3.28;;
2840;SDS011;53423;49.224;12.074;2022-07-23T08:42:57;5.68;;;3.65;;
2840;SDS011;53423;49.224;12.074;2022-07-23T08:45:26;5.60;;;3.35;;
2840;SDS011;53423;49.224;12.074;2022-07-23T08:47:56;6.60;;;3.78;;
2840;SDS011;53423;49.224;12.074;2022-07-23T08:50:28;6.83;;;4.00;;
2840;SDS011;53423;49.224;12.074;2022-07-23T08:52:56;11.35;;;4.28;;
2840;SDS011;53423;49.224;12.074;2022-07-23T08:55:29;7.57;;;3.80;;
2840;SDS011;53423;49.224;12.074;2022-07-23T08:57:58;7.15;;;4.43;;
2840;SDS011;53423;49.224;12.074;2022-07-23T09:00:26;7.25;;;4.50;;
2840;SDS011;53423;49.224;12.074;2022-07-23T09:02:55;7.10;;;4.33;;
2840;SDS011;53423;49.224;12.074;2022-07-23T09:05:24;8.40;;;4.40;;
2840;SDS011;53423;49.224;12.074;2022-07-23T09:08:05;8.00;;;4.40;;
2840;SDS011;53423;49.224;12.074;2022-07-23T09:10:45;6.70;;;4.55;;
2840;SDS011;53423;49.224;12.074;2022-07-23T09:13:26;7.20;;;4.30;;
2840;SDS011;53423;49.224;12.074;2022-07-23T09:15:57;10.43;;;4.40;;
2840;SDS011;53423;49.224;12.074;2022-07-23T09:18:30;6.57;;;4.38;;
2840;SDS011;53423;49.224;12.074;2022-07-23T09:21:07;7.30;;;4.55;;
2840;SDS011;53423;49.224;12.074;2022-07-23T09:23:37;7.13;;;4.45;;
2840;SDS011;53423;49.224;12.074;2022-07-23T09:26:23;7.70;;;4.63;;
2840;SDS011;53423;49.224;12.074;2022-07-23T09:28:55;7.47;;;4.40;;
2840;SDS011;53423;49.224;12.074;2022-07-23T09:31:27;9.15;;;4.63;;
2840;SDS011;53423;49.224;12.074;2022-07-23T09:34:10;6.78;;;4.55;;
2840;SDS011;53423;49.224;12.074;2022-07-23T09:36:40;6.82;;;4.20;;
2840;SDS011;53423;49.224;12.074;2022-07-23T09:39:10;7.50;;;4.40;;
2840;SDS011;53423;49.224;12.074;2022-07-23T09:41:40;8.03;;;4.23;;
2840;SDS011;53423;49.224;12.074;2022-07-23T09:44:12;7.57;;;4.63;;
2840;SDS011;53423;49.224;12.074;2022-07-23T09:46:42;7.72;;;4.55;;
2840;SDS011;53423;49.224;12.074;2022-07-23T09:49:18;8.02;;;5.22;;
2840;SDS011;53423;49.224;12.074;2022-07-23T09:51:48;7.63;;;4.60;;
2840;SDS011;53423;49.224;12.074;2022-07-23T09:54:22;7.00;;;4.30;;
2840;SDS011;53423;49.224;12.074;2022-07-23T09:57:00;7.43;;;3.65;;
2840;SDS011;53423;49.224;12.074;2022-07-23T09:59:33;6.88;;;4.30;;
2840;SDS011;53423;49.224;12.074;2022-07-23T10:02:04;6.10;;;3.95;;
2840;SDS011;53423;49.224;12.074;2022-07-23T10:04:34;7.22;;;4.68;;
2840;SDS011;53423;49.224;12.074;2022-07-23T10:07:04;7.50;;;4.33;;
2840;SDS011;53423;49.224;12.074;2022-07-23T10:09:35;10.32;;;5.10;;
2840;SDS011;53423;49.224;12.074;2022-07-23T10:12:05;9.02;;;4.85;;
2840;SDS011;53423;49.224;12.074;2022-07-23T10:14:53;7.28;;;4.75;;
2840;SDS011;53423;49.224;12.074;2022-07-23T10:17:23;7.57;;;4.90;;
2840;SDS011;53423;49.224;12.074;2022-07-23T10:19:52;9.03;;;5.00;;
2840;SDS011;53423;49.224;12.074;2022-07-23T10:22:20;8.70;;;5.20;;
2840;SDS011;53423;49.224;12.074;2022-07-23T10:25:04;8.15;;;4.90;;
2840;SDS011;53423;49.224;12.074;2022-07-23T10:27:43;8.70;;;5.25;;
2840;SDS011;53423;49.224;12.074;2022-07-23T10:30:36;7.18;;;5.13;;
2840;SDS011;53423;49.224;12.074;2022-07-23T10:33:23;8.37;;;5.07;;
2840;SDS011;53423;49.224;12.074;2022-07-23T10:36:01;9.50;;;6.50;;
2840;SDS011;53423;49.224;12.074;2022-07-23T10:38:48;8.30;;;6.00;;
2840;SDS011;53423;49.224;12.074;2022-07-23T10:41:30;10.27;;;6.50;;
2840;SDS011;53423;49.224;12.074;2022-07-23T10:44:06;9.65;;;6.38;;
2840;SDS011;53423;49.224;12.074;2022-07-23T10:46:37;9.57;;;6.50;;
2840;SDS011;53423;49.224;12.074;2022-07-23T10:49:30;10.55;;;6.40;;
2840;SDS011;53423;49.224;12.074;2022-07-23T10:52:16;9.38;;;6.22;;
2840;SDS011;53423;49.224;12.074;2022-07-23T10:54:51;7.63;;;5.13;;
2840;SDS011;53423;49.224;12.074;2022-07-23T10:57:21;7.90;;;4.97;;
2840;SDS011;53423;49.224;12.074;2022-07-23T11:02:49;9.48;;;5.45;;
2840;SDS011;53423;49.224;12.074;2022-07-23T11:05:19;8.77;;;4.65;;
2840;SDS011;53423;49.224;12.074;2022-07-23T11:10:47;8.23;;;4.70;;
2840;SDS011;53423;49.224;12.074;2022-07-23T11:13:27;7.33;;;4.47;;
2840;SDS011;53423;49.224;12.074;2022-07-23T11:16:04;7.43;;;5.13;;
2840;SDS011;53423;49.224;12.074;2022-07-23T11:21:50;7.72;;;4.50;;
2840;SDS011;53423;49.224;12.074;2022-07-23T11:24:19;8.00;;;5.03;;
2840;SDS011;53423;49.224;12.074;2022-07-23T11:26:53;7.47;;;4.80;;
2840;SDS011;53423;49.224;12.074;2022-07-23T11:29:45;7.53;;;4.90;;
2840;SDS011;53423;49.224;12.074;2022-07-23T11:32:19;7.32;;;4.38;;
2840;SDS011;53423;49.224;12.074;2022-07-23T11:34:54;7.35;;;4.15;;
2840;SDS011;53423;49.224;12.074;2022-07-23T11:37:27;7.85;;;4.30;;
2840;SDS011;53423;49.224;12.074;2022-07-23T11:40:01;7.03;;;3.93;;
2840;SDS011;53423;49.224;12.074;2022-07-23T11:42:31;6.78;;;4.20;;
2840;SDS011;53423;49.224;12.074;2022-07-23T11:44:59;8.27;;;4.20;;
2840;SDS011;53423;49.224;12.074;2022-07-23T11:47:28;6.70;;;4.15;;
2840;SDS011;53423;49.224;12.074;2022-07-23T11:49:58;6.47;;;4.20;;
2840;SDS011;53423;49.224;12.074;2022-07-23T11:52:27;6.80;;;4.20;;
2840;SDS011;53423;49.224;12.074;2022-07-23T11:54:58;7.22;;;3.80;;
2840;SDS011;53423;49.224;12.074;2022-07-23T11:57:28;6.82;;;4.10;;
2840;SDS011;53423;49.224;12.074;2022-07-23T11:59:58;6.95;;;4.00;;
2840;SDS011;53423;49.224;12.074;2022-07-23T12:02:31;7.38;;;3.83;;
2840;SDS011;53423;49.224;12.074;2022-07-23T12:05:00;6.57;;;4.07;;
2840;SDS011;53423;49.224;12.074;2022-07-23T12:07:30;6.50;;;3.67;;
2840;SDS011;53423;49.224;12.074;2022-07-23T12:10:00;6.30;;;3.80;;
2840;SDS011;53423;49.224;12.074;2022-07-23T12:12:37;6.93;;;4.10;;
2840;SDS011;53423;49.224;12.074;2022-07-23T12:15:06;7.22;;;3.88;;
2840;SDS011;53423;49.224;12.074;2022-07-23T12:17:36;9.97;;;3.43;;
2840;SDS011;53423;49.224;12.074;2022-07-23T12:20:08;6.47;;;3.72;;
2840;SDS011;53423;49.224;12.074;2022-07-23T12:22:40;5.80;;;3.35;;
2840;SDS011;53423;49.224;12.074;2022-07-23T12:25:10;6.25;;;3.70;;
2840;SDS011;53423;49.224;12.074;2022-07-23T12:27:39;7.03;;;4.03;;
2840;SDS011;53423;49.224;12.074;2022-07-23T12:30:17;6.10;;;3.63;;
2840;SDS011;53423;49.224;12.074;2022-07-23T12:32:47;6.32;;;3.45;;
2840;SDS011;53423;49.224;12.074;2022-07-23T12:35:18;7.45;;;3.30;;
2840;SDS011;53423;49.224;12.074;2022-07-23T12:37:47;5.50;;;3.30;;
2840;SDS011;53423;49.224;12.074;2022-07-23T12:40:19;6.50;;;4.30;;
2840;SDS011;53423;49.224;12.074;2022-07-23T12:42:55;6.13;;;4.00;;
2840;SDS011;53423;49.224;12.074;2022-07-23T12:45:25;7.35;;;4.20;;
2840;SDS011;53423;49.224;12.074;2022-07-23T12:47:55;6.72;;;3.58;;
2840;SDS011;53423;49.224;12.074;2022-07-23T12:50:31;5.88;;;3.45;;
2840;SDS011;53423;49.224;12.074;2022-07-23T12:53:18;6.15;;;3.60;;
2840;SDS011;53423;49.224;12.074;2022-07-23T12:55:50;6.53;;;3.97;;
2840;SDS011;53423;49.224;12.074;2022-07-23T12:58:44;7.97;;;3.88;;
2840;SDS011;53423;49.224;12.074;2022-07-23T13:01:26;6.22;;;3.10;;
2840;SDS011;53423;49.224;12.074;2022-07-23T13:03:58;6.07;;;3.65;;
2840;SDS011;53423;49.224;12.074;2022-07-23T13:06:39;5.90;;;3.17;;
2840;SDS011;53423;49.224;12.074;2022-07-23T13:09:09;5.57;;;3.23;;
2840;SDS011;53423;49.224;12.074;2022-07-23T13:11:39;6.18;;;3.38;;
2840;SDS011;53423;49.224;12.074;2022-07-23T13:14:08;5.65;;;3.28;;
2840;SDS011;53423;49.224;12.074;2022-07-23T13:16:38;9.68;;;3.35;;
2840;SDS011;53423;49.224;12.074;2022-07-23T13:19:08;6.40;;;3.40;;
2840;SDS011;53423;49.224;12.074;2022-07-23T13:21:39;6.73;;;3.67;;
2840;SDS011;53423;49.224;12.074;2022-07-23T13:24:10;5.93;;;3.53;;
2840;SDS011;53423;49.224;12.074;2022-07-23T13:26:39;6.60;;;4.22;;
2840;SDS011;53423;49.224;12.074;2022-07-23T13:29:08;5.95;;;3.50;;
2840;SDS011;53423;49.224;12.074;2022-07-23T13:31:37;6.72;;;3.90;;
2840;SDS011;53423;49.224;12.074;2022-07-23T13:34:06;6.00;;;3.53;;
2840;SDS011;53423;49.224;12.074;2022-07-23T13:36:34;6.88;;;3.88;;
2840;SDS011;53423;49.224;12.074;2022-07-23T13:39:04;6.38;;;3.78;;
2840;SDS011;53423;49.224;12.074;2022-07-23T13:41:35;6.80;;;4.05;;
2840;SDS011;53423;49.224;12.074;2022-07-23T13:44:03;5.60;;;3.40;;
2840;SDS011;53423;49.224;12.074;2022-07-23T13:46:32;6.27;;;3.67;;
2840;SDS011;53423;49.224;12.074;2022-07-23T13:49:01;6.18;;;3.80;;
2840;SDS011;53423;49.224;12.074;2022-07-23T13:51:34;6.10;;;3.70;;
2840;SDS011;53423;49.224;12.074;2022-07-23T13:54:05;6.93;;;4.07;;
2840;SDS011;53423;49.224;12.074;2022-07-23T13:56:34;6.88;;;3.65;;
2840;SDS011;53423;49.224;12.074;2022-07-23T13:59:02;6.40;;;3.40;;
2840;SDS011;53423;49.224;12.074;2022-07-23T14:01:32;7.57;;;4.20;;
2840;SDS011;53423;49.224;12.074;2022-07-23T14:04:20;6.40;;;4.05;;
2840;SDS011;53423;49.224;12.074;2022-07-23T14:06:49;6.68;;;3.85;;
2840;SDS011;53423;49.224;12.074;2022-07-23T14:09:38;8.63;;;4.18;;
2840;SDS011;53423;49.224;12.074;2022-07-23T14:12:07;6.00;;;3.43;;
2840;SDS011;53423;49.224;12.074;2022-07-23T14:14:37;7.03;;;4.05;;
2840;SDS011;53423;49.224;12.074;2022-07-23T14:17:05;7.22;;;3.60;;
2840;SDS011;53423;49.224;12.074;2022-07-23T14:19:36;6.10;;;3.45;;
2840;SDS011;53423;49.224;12.074;2022-07-23T14:22:05;6.10;;;3.63;;
2840;SDS011;53423;49.224;12.074;2022-07-23T14:24:33;6.93;;;3.87;;
2840;SDS011;53423;49.224;12.074;2022-07-23T14:27:03;5.88;;;3.42;;
2840;SDS011;53423;49.224;12.074;2022-07-23T14:29:33;7.22;;;3.95;;
2840;SDS011;53423;49.224;12.074;2022-07-23T14:32:02;6.03;;;3.88;;
2840;SDS011;53423;49.224;12.074;2022-07-23T14:34:32;7.20;;;3.72;;
2840;SDS011;53423;49.224;12.074;2022-07-23T14:37:03;6.17;;;3.60;;
2840;SDS011;53423;49.224;12.074;2022-07-23T14:39:32;6.28;;;4.05;;
2840;SDS011;53423;49.224;12.074;2022-07-23T14:42:03;6.10;;;3.90;;
2840;SDS011;53423;49.224;12.074;2022-07-23T14:44:32;7.15;;;3.70;;
2840;SDS011;53423;49.224;12.074;2022-07-23T14:47:01;6.40;;;3.80;;
2840;SDS011;53423;49.224;12.074;2022-07-23T14:49:32;6.17;;;3.53;;
2840;SDS011;53423;49.224;12.074;2022-07-23T14:52:01;6.70;;;3.83;;
2840;SDS011;53423;49.224;12.074;2022-07-23T14:54:31;6.10;;;3.72;;
2840;SDS011;53423;49.224;12.074;2022-07-23T14:56:59;6.10;;;3.80;;
2840;SDS011;53423;49.224;12.074;2022-07-23T14:59:30;7.20;;;4.25;;
2840;SDS011;53423;49.224;12.074;2022-07-23T15:01:59;7.60;;;4.23;;
2840;SDS011;53423;49.224;12.074;2022-07-23T15:04:28;6.55;;;3.47;;
2840;SDS011;53423;49.224;12.074;2022-07-23T15:07:04;6.72;;;3.80;;
2840;SDS011;53423;49.224;12.074;2022-07-23T15:09:32;6.30;;;3.45;;